createdAt,value
2022-11-17T00:02:38.227Z,6.89
2022-11-17T00:12:38.043Z,6.92
2022-11-17T00:22:38.069Z,6.85
2022-11-17T00:32:38.030Z,6.78
2022-11-17T00:42:38.048Z,6.75
2022-11-17T00:52:38.000Z,6.7
2022-11-17T01:02:38.191Z,6.72
2022-11-17T01:12:38.031Z,6.68
2022-11-17T01:22:38.122Z,6.66
2022-11-17T01:32:37.993Z,6.62
2022-11-17T01:42:38.061Z,6.64
2022-11-17T01:52:38.023Z,6.63
2022-11-17T02:02:38.045Z,6.65
2022-11-17T02:12:37.998Z,6.63
2022-11-17T02:22:38.161Z,6.64
2022-11-17T02:32:38.012Z,6.65
2022-11-17T02:42:38.050Z,6.62
2022-11-17T02:52:37.994Z,6.58
2022-11-17T03:02:38.137Z,6.53
2022-11-17T03:12:38.015Z,6.52
2022-11-17T03:22:38.104Z,6.5
2022-11-17T03:32:37.977Z,6.56
2022-11-17T03:42:38.124Z,6.57
2022-11-17T03:52:37.993Z,6.57
2022-11-17T04:02:38.013Z,6.61
2022-11-17T04:12:37.999Z,6.56
2022-11-17T04:22:38.033Z,6.53
2022-11-17T04:32:37.996Z,6.4
2022-11-17T04:42:37.999Z,6.3
2022-11-17T04:52:38.006Z,6.24
2022-11-17T05:02:38.139Z,6.07
2022-11-17T05:12:37.999Z,5.8
2022-11-17T05:22:38.099Z,5.66
2022-11-17T05:32:37.989Z,5.64
2022-11-17T05:42:38.112Z,5.76
2022-11-17T05:52:37.979Z,5.79
2022-11-17T06:02:38.119Z,5.71
2022-11-17T06:12:38.006Z,5.72
2022-11-17T06:22:38.065Z,5.71
2022-11-17T06:32:37.988Z,5.76
2022-11-17T06:42:38.244Z,5.86
2022-11-17T06:52:38.006Z,5.99
2022-11-17T07:02:38.113Z,5.96
2022-11-17T07:12:38.002Z,5.93
2022-11-17T07:22:38.118Z,6.02
2022-11-17T07:32:38.001Z,6.19
2022-11-17T07:42:38.033Z,6.16
2022-11-17T07:52:41.370Z,6.2
2022-11-17T08:02:38.013Z,6.22
2022-11-17T08:12:37.975Z,6.32
2022-11-17T08:22:38.132Z,6.52
2022-11-17T08:32:37.985Z,6.53
2022-11-17T08:42:38.106Z,6.52
2022-11-17T08:52:38.006Z,6.61
2022-11-17T09:02:38.011Z,6.86
2022-11-17T09:12:37.980Z,6.99
2022-11-17T09:22:38.040Z,7.12
2022-11-17T09:32:38.002Z,7.21
2022-11-17T09:42:38.078Z,7.48
2022-11-17T09:52:37.973Z,7.5
2022-11-17T10:02:38.161Z,7.72
2022-11-17T10:12:38.001Z,7.77
2022-11-17T10:22:38.075Z,7.85
2022-11-17T10:32:37.958Z,7.55
2022-11-17T10:42:37.979Z,8.77
2022-11-17T10:52:37.960Z,10.71
2022-11-17T11:02:37.982Z,11.9
2022-11-17T11:12:37.991Z,9.98
2022-11-17T11:22:38.025Z,9.04
2022-11-17T11:32:37.932Z,8.82
2022-11-17T11:42:38.037Z,8.82
2022-11-17T11:52:37.962Z,8.81
2022-11-17T12:12:37.948Z,9.1
2022-11-17T12:22:37.943Z,9.33
2022-11-17T12:32:37.940Z,9.5
2022-11-17T12:42:37.917Z,9.54
2022-11-17T12:52:37.993Z,9.54
2022-11-17T13:02:37.939Z,9.67
2022-11-17T13:12:37.978Z,9.68
2022-11-17T13:22:41.871Z,9.76
2022-11-17T13:32:37.934Z,9.8
2022-11-17T13:42:37.881Z,9.88
2022-11-17T13:52:42.142Z,9.85
2022-11-17T14:02:37.909Z,9.82
2022-11-17T14:12:37.985Z,9.69
2022-11-17T14:22:37.884Z,9.52
2022-11-17T14:32:37.882Z,9.31
2022-11-17T14:42:37.894Z,9.16
2022-11-17T14:52:37.995Z,8.96
2022-11-17T15:02:46.198Z,8.76
2022-11-17T15:12:37.904Z,8.43
2022-11-17T15:22:37.905Z,8.18
2022-11-17T15:32:37.931Z,7.87
2022-11-17T15:42:37.896Z,7.66
2022-11-17T15:52:57.003Z,7.43
2022-11-17T16:02:37.873Z,7.08
2022-11-17T16:12:37.898Z,6.76
2022-11-17T16:22:37.899Z,6.57
2022-11-17T16:32:37.911Z,6.52
2022-11-17T16:42:37.861Z,6.34
2022-11-17T16:52:37.876Z,6.12
2022-11-17T17:02:37.927Z,5.92
2022-11-17T17:12:38.006Z,5.79
2022-11-17T17:22:37.843Z,5.6
2022-11-17T17:32:37.884Z,5.36
2022-11-17T17:42:37.867Z,5.23
2022-11-17T17:52:37.885Z,5.11
2022-11-17T18:02:37.919Z,4.95
2022-11-17T18:12:37.891Z,4.65
2022-11-17T18:22:37.870Z,4.38
2022-11-17T18:32:37.923Z,4.36
2022-11-17T18:42:37.863Z,4.32
2022-11-17T18:52:37.912Z,4.06
2022-11-17T19:02:37.843Z,3.89
2022-11-17T19:22:37.891Z,3.66
2022-11-17T19:32:37.882Z,3.66
2022-11-17T19:42:37.920Z,3.64
2022-11-17T19:52:37.881Z,3.75
2022-11-17T20:02:37.905Z,3.98
2022-11-17T20:12:37.895Z,4.12
2022-11-17T20:22:37.928Z,4.18
2022-11-17T20:32:37.880Z,4.26
2022-11-17T20:42:37.901Z,4.24
2022-11-17T20:52:37.890Z,4.16
2022-11-17T21:02:38.046Z,4.28
2022-11-17T21:12:37.876Z,4.34
2022-11-17T21:22:37.927Z,4.25
2022-11-17T21:32:37.900Z,4.17
2022-11-17T21:42:37.916Z,4.33
2022-11-17T21:52:37.906Z,4.37
2022-11-17T22:02:37.941Z,4.38
2022-11-17T22:12:37.890Z,4.45
2022-11-17T22:22:37.926Z,4.53
2022-11-17T22:32:41.181Z,4.41
2022-11-17T22:42:37.929Z,4.51
2022-11-17T22:52:37.954Z,4.58
2022-11-17T23:02:37.927Z,4.69
2022-11-17T23:12:37.903Z,4.87
2022-11-17T23:22:37.924Z,5.02
2022-11-17T23:32:37.910Z,5.06
2022-11-17T23:42:42.813Z,5.17
2022-11-17T23:52:37.902Z,5.21
